Time;durP1;ratioP1;P1;durP2;ratioP2;P2;SDS_P1;SDS_P2;PMS_P1;PMS_P2;Temp;Humidity;BMP_temperature;BMP_pressure;BME280_temperature;BME280_humidity;BME280_pressure;Samples;Min_cycle;Max_cycle;Signal;HPM_P1;HPM_P2
2021/11/25 00:02:42;;;;;;;3.83;2.20;;;17.90;66.80;;;;;;10565314;28;20020;-55
2021/11/25 00:07:43;;;;;;;3.35;1.90;;;18.00;66.70;;;;;;10583537;28;20024;-57
2021/11/25 00:12:44;;;;;;;4.03;2.10;;;18.00;66.70;;;;;;10583238;28;20038;-55
2021/11/25 00:17:45;;;;;;;5.50;2.20;;;17.90;66.80;;;;;;10551191;28;20081;-57
2021/11/25 00:22:46;;;;;;;4.47;2.60;;;17.80;67.00;;;;;;10564511;28;20024;-55
2021/11/25 00:27:47;;;;;;;4.28;2.50;;;17.80;66.90;;;;;;10582674;28;20055;-57
2021/11/25 00:32:48;;;;;;;3.67;2.17;;;17.90;66.80;;;;;;10564451;28;20049;-57
2021/11/25 00:37:49;;;;;;;3.85;2.40;;;17.90;66.60;;;;;;10563906;28;20052;-57
2021/11/25 00:42:49;;;;;;;5.90;2.67;;;18.00;66.50;;;;;;10582119;28;20028;-57
2021/11/25 00:47:50;;;;;;;3.15;1.88;;;17.90;66.50;;;;;;10581887;28;20027;-57
2021/11/25 00:52:51;;;;;;;4.45;2.03;;;17.90;66.60;;;;;;10581767;28;20031;-57
2021/11/25 00:57:52;;;;;;;3.63;2.00;;;17.90;66.50;;;;;;10581946;28;20043;-57
2021/11/25 01:02:52;;;;;;;3.42;2.30;;;17.90;66.50;;;;;;10563101;28;20024;-57
2021/11/25 01:07:53;;;;;;;3.63;2.22;;;17.90;66.60;;;;;;10581117;28;20126;-56
2021/11/25 01:12:57;;;;;;;4.18;2.50;;;17.90;66.40;;;;;;10562715;28;20424;-57
2021/11/25 01:18:11;;;;;;;4.00;2.00;;;17.90;66.40;;;;;;10562616;28;20035;-56
2021/11/25 01:23:25;;;;;;;3.85;2.25;;;17.90;66.50;;;;;;10562607;28;20024;-57
2021/11/25 01:28:29;;;;;;;3.78;2.28;;;17.90;66.30;;;;;;10579894;28;20456;-57
2021/11/25 01:33:31;;;;;;;3.88;2.35;;;17.90;66.30;;;;;;10562495;28;20122;-57
2021/11/25 01:38:32;;;;;;;3.35;2.15;;;17.90;66.40;;;;;;10561776;28;20097;-56
2021/11/25 01:43:37;;;;;;;3.00;2.17;;;17.80;66.50;;;;;;10580077;28;20030;-57
2021/11/25 01:48:39;;;;;;;3.63;2.25;;;17.90;66.40;;;;;;10562363;28;20019;-57
2021/11/25 01:53:40;;;;;;;4.93;2.53;;;17.90;66.40;;;;;;10561626;28;20484;-57
2021/11/25 01:58:41;;;;;;;2.95;1.85;;;17.90;66.30;;;;;;10579807;28;20031;-57
2021/11/25 02:03:43;;;;;;;2.55;1.77;;;17.90;66.20;;;;;;10579841;28;20012;-56
2021/11/25 02:08:44;;;;;;;3.45;2.35;;;17.90;66.20;;;;;;10579602;28;20518;-57
2021/11/25 02:13:45;;;;;;;3.83;2.05;;;18.00;66.20;;;;;;10579621;28;20119;-56
2021/11/25 02:18:46;;;;;;;2.90;2.08;;;18.00;65.90;;;;;;10579365;28;20035;-57
2021/11/25 02:23:47;;;;;;;3.30;1.88;;;18.00;65.90;;;;;;10579529;28;20391;-56
2021/11/25 02:28:47;;;;;;;3.67;2.30;;;17.90;66.00;;;;;;10579255;28;20036;-56
2021/11/25 02:33:48;;;;;;;4.10;2.45;;;18.00;66.00;;;;;;10579090;28;20027;-56
2021/11/25 02:38:49;;;;;;;2.72;1.85;;;17.90;66.00;;;;;;10583664;28;20047;-57
2021/11/25 02:43:53;;;;;;;3.22;1.83;;;18.00;66.00;;;;;;10586960;28;20099;-57
2021/11/25 02:48:56;;;;;;;4.28;2.03;;;18.00;65.90;;;;;;10586972;28;20120;-57
2021/11/25 02:53:57;;;;;;;3.35;1.77;;;17.90;66.00;;;;;;10586638;28;20126;-57
2021/11/25 02:59:00;;;;;;;3.13;1.75;;;18.00;66.00;;;;;;10586409;28;20024;-57
2021/11/25 03:04:03;;;;;;;3.10;2.10;;;17.90;65.90;;;;;;10568321;28;20111;-54
2021/11/25 03:09:06;;;;;;;3.67;2.30;;;17.90;66.00;;;;;;10585991;28;20116;-57
2021/11/25 03:14:10;;;;;;;3.53;2.30;;;18.00;65.90;;;;;;10567801;28;20592;-57
2021/11/25 03:19:12;;;;;;;2.92;2.05;;;17.90;65.90;;;;;;10567511;28;20031;-57
2021/11/25 03:24:13;;;;;;;2.97;2.00;;;17.90;65.90;;;;;;10585309;28;20024;-56
2021/11/25 03:29:14;;;;;;;2.67;1.73;;;18.00;65.80;;;;;;10566897;28;20028;-56
2021/11/25 03:34:14;;;;;;;2.80;1.73;;;18.00;65.80;;;;;;10566423;28;20399;-56
2021/11/25 03:39:15;;;;;;;3.00;2.08;;;17.90;65.70;;;;;;10584738;28;20645;-56
2021/11/25 03:44:16;;;;;;;4.50;2.10;;;17.90;65.80;;;;;;10584556;28;20035;-56
2021/11/25 03:49:16;;;;;;;3.38;2.15;;;17.90;65.80;;;;;;10565559;28;20059;-57
2021/11/25 03:54:17;;;;;;;2.70;1.70;;;17.90;65.80;;;;;;10584122;28;20135;-57
2021/11/25 03:59:18;;;;;;;4.03;2.00;;;17.90;65.70;;;;;;10583806;28;20024;-55
2021/11/25 04:04:18;;;;;;;2.80;1.73;;;18.00;65.60;;;;;;10583712;28;20027;-58
2021/11/25 04:09:19;;;;;;;3.75;2.13;;;17.90;65.70;;;;;;10583505;28;20028;-55
2021/11/25 04:14:20;;;;;;;3.30;2.17;;;17.90;65.90;;;;;;10582596;28;20490;-57
2021/11/25 04:19:21;;;;;;;3.95;2.25;;;17.80;66.00;;;;;;10551633;28;20024;-57
2021/11/25 04:24:22;;;;;;;2.80;1.67;;;17.90;65.80;;;;;;10582813;28;20589;-57
2021/11/25 04:29:24;;;;;;;2.83;1.90;;;17.90;65.80;;;;;;10582832;28;20116;-57
2021/11/25 04:39:44;;;;;;;3.13;1.98;;;17.90;65.60;;;;;;10566666;28;20036;-56
2021/11/25 04:44:46;;;;;;;3.30;2.10;;;17.90;65.70;;;;;;10582156;28;20024;-57
2021/11/25 04:49:46;;;;;;;3.20;1.83;;;17.90;65.80;;;;;;10563481;28;20063;-57
2021/11/25 04:54:47;;;;;;;3.33;2.00;;;17.90;65.70;;;;;;10581859;28;20463;-55
2021/11/25 04:59:48;;;;;;;4.63;2.42;;;17.90;65.70;;;;;;10580686;28;20115;-57
2021/11/25 05:04:49;;;;;;;3.05;1.90;;;17.90;65.70;;;;;;10581205;28;20024;-57
2021/11/25 05:09:49;;;;;;;3.00;2.15;;;17.90;65.70;;;;;;10562716;28;20534;-56
2021/11/25 05:14:50;;;;;;;2.45;1.52;;;17.80;65.70;;;;;;10575965;28;20115;-55
2021/11/25 05:19:51;;;;;;;4.05;2.22;;;17.90;65.70;;;;;;10537061;28;20031;-56
2021/11/25 05:24:51;;;;;;;3.05;2.00;;;17.90;65.60;;;;;;10562314;28;20119;-56
2021/11/25 05:29:52;;;;;;;3.58;2.17;;;17.90;65.40;;;;;;10579251;28;20028;-58
2021/11/25 05:34:53;;;;;;;3.70;2.25;;;18.00;65.40;;;;;;10545007;28;20044;-57
2021/11/25 05:39:54;;;;;;;3.00;1.70;;;18.00;65.40;;;;;;10579082;28;20032;-57
2021/11/25 05:44:54;;;;;;;3.15;2.05;;;18.10;65.10;;;;;;10561300;28;20126;-57
2021/11/25 05:49:55;;;;;;;2.75;1.90;;;18.20;64.80;;;;;;10579494;28;20371;-58
2021/11/25 05:54:56;;;;;;;5.15;1.95;;;18.30;64.70;;;;;;10578591;28;20024;-57
2021/11/25 05:59:56;;;;;;;2.72;1.55;;;18.40;64.40;;;;;;10577848;28;20035;-56
2021/11/25 06:04:57;;;;;;;4.93;2.65;;;18.40;64.70;;;;;;10547114;28;20043;-57
2021/11/25 06:09:58;;;;;;;3.42;2.70;;;18.60;65.00;;;;;;10578075;28;20164;-57
2021/11/25 06:14:58;;;;;;;4.40;2.20;;;18.60;65.20;;;;;;10581645;28;20041;-57
2021/11/25 06:19:59;;;;;;;6.68;3.03;;;18.60;65.30;;;;;;10566645;28;20088;-55
2021/11/25 06:25:00;;;;;;;3.70;2.13;;;18.70;64.80;;;;;;10587427;28;20483;-57
2021/11/25 06:30:09;;;;;;;5.72;2.20;;;18.70;65.10;;;;;;10585041;28;20043;-56
2021/11/25 06:35:12;;;;;;;5.35;2.03;;;18.80;64.90;;;;;;10563414;28;20043;-55
2021/11/25 06:40:17;;;;;;;8.32;2.78;;;18.80;64.80;;;;;;10581587;28;20035;-56
2021/11/25 06:45:18;;;;;;;5.40;2.25;;;18.80;64.70;;;;;;10581324;28;20118;-56
2021/11/25 06:50:21;;;;;;;10.25;4.47;;;18.90;64.40;;;;;;10583754;28;20464;-58
2021/11/25 06:55:24;;;;;;;16.00;3.47;;;18.90;64.10;;;;;;10581502;28;20031;-58
2021/11/25 07:00:27;;;;;;;7.07;2.78;;;18.80;63.50;;;;;;10584091;28;20059;-56
2021/11/25 07:05:28;;;;;;;7.82;2.63;;;18.90;63.60;;;;;;10566133;28;20024;-58
2021/11/25 07:10:29;;;;;;;7.57;2.80;;;18.90;63.50;;;;;;10582492;28;20557;-58
2021/11/25 07:15:30;;;;;;;8.25;3.00;;;19.00;63.30;;;;;;10581687;28;20034;-57
2021/11/25 07:20:31;;;;;;;13.52;4.03;;;18.90;63.50;;;;;;10579345;28;20403;-59
2021/11/25 07:25:32;;;;;;;8.93;3.72;;;18.90;62.80;;;;;;10544233;28;20024;-58
2021/11/25 07:30:32;;;;;;;5.72;3.13;;;19.00;62.60;;;;;;10550421;28;20066;-58
2021/11/25 07:35:33;;;;;;;3.97;2.65;;;19.10;62.50;;;;;;10581686;28;20047;-59
2021/11/25 07:40:34;;;;;;;5.75;2.80;;;19.10;62.30;;;;;;10581341;28;20080;-59
2021/11/25 07:45:35;;;;;;;4.85;2.85;;;19.10;62.40;;;;;;10561235;28;20039;-56
2021/11/25 07:50:37;;;;;;;5.47;2.67;;;19.10;62.30;;;;;;10560588;28;20031;-58
2021/11/25 07:55:38;;;;;;;4.13;2.75;;;19.20;62.30;;;;;;10543563;28;20027;-59
2021/11/25 08:00:39;;;;;;;3.90;2.33;;;19.10;62.30;;;;;;10579884;28;20036;-59
2021/11/25 08:05:40;;;;;;;6.78;3.08;;;19.20;62.30;;;;;;10581319;28;20027;-58
2021/11/25 08:10:41;;;;;;;4.45;3.00;;;19.10;62.30;;;;;;10563696;28;20102;-59
2021/11/25 08:15:42;;;;;;;4.85;2.33;;;19.10;62.30;;;;;;10581408;28;20051;-59
2021/11/25 08:20:43;;;;;;;4.20;2.45;;;19.10;62.30;;;;;;10562767;28;20036;-56
2021/11/25 08:25:43;;;;;;;7.80;2.20;;;19.10;62.30;;;;;;10562877;28;20417;-57
2021/11/25 08:30:44;;;;;;;5.35;2.80;;;19.10;62.40;;;;;;10562556;28;20043;-54
2021/11/25 08:35:45;;;;;;;5.25;2.40;;;19.10;62.50;;;;;;10562060;28;20066;-57
2021/11/25 08:40:46;;;;;;;4.13;2.00;;;19.00;62.70;;;;;;10561967;28;20453;-57
2021/11/25 08:45:48;;;;;;;3.38;2.13;;;18.90;63.10;;;;;;10580236;28;20048;-57
2021/11/25 08:50:49;;;;;;;3.33;2.20;;;19.00;62.80;;;;;;10580507;28;20024;-57
2021/11/25 08:55:53;;;;;;;3.83;2.10;;;19.00;62.70;;;;;;10561352;28;20024;-57
2021/11/25 09:00:54;;;;;;;3.67;2.20;;;19.00;62.60;;;;;;10577997;28;20380;-57
2021/11/25 09:05:54;;;;;;;4.10;2.05;;;19.00;62.70;;;;;;10579349;28;20114;-58
2021/11/25 09:10:55;;;;;;;5.20;2.13;;;19.00;62.70;;;;;;10578796;28;20110;-56
2021/11/25 09:15:57;;;;;;;3.72;2.05;;;18.90;62.70;;;;;;10578797;28;20027;-57
2021/11/25 09:20:58;;;;;;;4.82;2.15;;;19.00;62.70;;;;;;10578504;28;20032;-57
2021/11/25 09:25:59;;;;;;;3.00;1.90;;;18.90;62.80;;;;;;10560277;28;20020;-57
2021/11/25 09:30:59;;;;;;;4.55;2.20;;;19.00;62.70;;;;;;10578477;28;20081;-56
2021/11/25 09:36:00;;;;;;;4.07;2.22;;;19.00;62.60;;;;;;10578176;28;20130;-57
2021/11/25 09:41:01;;;;;;;3.58;2.20;;;19.00;62.60;;;;;;10578226;28;20028;-58
2021/11/25 09:46:02;;;;;;;3.83;2.05;;;19.00;62.60;;;;;;10577845;28;20031;-57
2021/11/25 09:51:06;;;;;;;2.67;1.90;;;19.00;62.70;;;;;;10560106;28;20580;-57
2021/11/25 09:56:08;;;;;;;3.28;1.75;;;19.00;62.60;;;;;;10559924;28;20031;-56
2021/11/25 10:01:14;;;;;;;2.63;1.70;;;19.00;62.80;;;;;;10559554;28;20030;-57
2021/11/25 10:06:26;;;;;;;2.78;1.60;;;19.00;62.70;;;;;;10578078;28;20088;-55
2021/11/25 10:11:31;;;;;;;2.72;1.55;;;18.90;62.60;;;;;;10560210;28;20118;-58
2021/11/25 10:16:36;;;;;;;3.45;1.88;;;19.00;62.60;;;;;;10528885;28;20502;-58
2021/11/25 10:21:42;;;;;;;10.55;2.38;;;18.90;62.90;;;;;;10577296;28;20501;-58
2021/11/25 10:26:43;;;;;;;2.83;1.48;;;18.90;62.90;;;;;;10559341;28;20028;-58
2021/11/25 10:31:44;;;;;;;2.85;1.40;;;18.90;62.70;;;;;;10577580;28;20036;-57
2021/11/25 10:37:05;;;;;;;3.13;1.63;;;18.80;63.00;;;;;;10558958;28;20503;-58
2021/11/25 10:42:07;;;;;;;2.60;1.58;;;18.80;63.00;;;;;;10575610;28;20049;-57
2021/11/25 10:47:18;;;;;;;2.22;1.60;;;18.90;62.80;;;;;;10558540;28;20529;-58
2021/11/25 10:52:37;;;;;;;4.05;1.70;;;18.90;62.90;;;;;;10558992;28;20079;-55
2021/11/25 10:57:56;;;;;;;3.25;1.85;;;18.90;62.50;;;;;;10561333;28;20035;-56
2021/11/25 11:03:11;;;;;;;2.72;1.40;;;18.90;62.80;;;;;;10584212;28;20020;-58
2021/11/25 11:08:13;;;;;;;3.08;1.45;;;18.90;62.60;;;;;;10584592;28;20342;-58
2021/11/25 11:13:21;;;;;;;2.97;1.30;;;18.90;62.70;;;;;;10565789;28;20027;-57
2021/11/25 11:18:43;;;;;;;2.95;1.45;;;18.90;62.90;;;;;;10552790;28;20107;-57
2021/11/25 11:23:44;;;;;;;2.67;1.42;;;18.90;62.70;;;;;;10565663;28;20039;-57
2021/11/25 11:28:45;;;;;;;2.58;1.52;;;18.90;62.90;;;;;;10565214;28;20054;-58
2021/11/25 11:33:48;;;;;;;2.58;1.42;;;18.90;62.90;;;;;;10564874;28;20042;-58
2021/11/25 11:38:50;;;;;;;2.70;1.70;;;18.90;62.80;;;;;;10539096;28;20047;-57
2021/11/25 11:43:51;;;;;;;2.42;1.42;;;18.90;62.90;;;;;;10527820;28;20028;-54
2021/11/25 11:48:53;;;;;;;3.25;2.28;;;18.90;62.80;;;;;;10538314;28;20028;-58
2021/11/25 11:53:57;;;;;;;3.22;2.03;;;18.90;62.80;;;;;;10538585;28;20107;-58
2021/11/25 11:58:59;;;;;;;1.88;1.30;;;18.80;63.10;;;;;;10540266;28;20032;-58
2021/11/25 12:04:03;;;;;;;2.95;1.60;;;18.80;63.00;;;;;;10539030;28;20031;-56
2021/11/25 12:09:22;;;;;;;3.63;2.20;;;18.80;62.90;;;;;;10528429;28;20032;-57
2021/11/25 12:14:29;;;;;;;2.97;1.83;;;18.70;63.20;;;;;;10524598;28;20047;-57
2021/11/25 12:19:43;;;;;;;2.78;1.50;;;18.70;63.10;;;;;;10528623;28;20016;-57
2021/11/25 12:25:01;;;;;;;3.45;1.67;;;18.70;63.20;;;;;;10537790;28;20036;-57
2021/11/25 12:35:15;;;;;;;3.15;1.95;;;18.60;64.10;;;;;;10536270;28;20055;-56
2021/11/25 12:40:21;;;;;;;2.67;1.85;;;18.60;63.30;;;;;;10579941;28;20034;-57
2021/11/25 12:45:34;;;;;;;2.10;1.35;;;18.50;63.50;;;;;;10579263;28;20486;-56
2021/11/25 12:50:58;;;;;;;2.40;1.50;;;18.50;63.80;;;;;;10567664;28;20032;-57
2021/11/25 12:56:18;;;;;;;3.72;1.63;;;18.60;63.50;;;;;;10573344;28;20421;-58
2021/11/25 13:01:23;;;;;;;2.55;1.63;;;18.70;63.30;;;;;;10563107;28;20028;-55
2021/11/25 13:06:24;;;;;;;4.13;1.85;;;18.70;63.00;;;;;;10569142;28;20032;-58
2021/11/25 13:11:27;;;;;;;2.70;1.52;;;18.70;63.00;;;;;;10560620;28;20023;-55
2021/11/25 13:16:28;;;;;;;1.90;1.42;;;18.80;62.90;;;;;;10561689;28;20028;-57
2021/11/25 13:21:31;;;;;;;3.40;2.08;;;18.70;63.00;;;;;;10577283;28;20379;-56
2021/11/25 13:26:50;;;;;;;2.65;1.83;;;18.80;62.90;;;;;;10568830;28;20088;-58
2021/11/25 13:31:51;;;;;;;2.03;1.37;;;18.80;62.60;;;;;;10560085;28;20576;-57
2021/11/25 13:36:56;;;;;;;2.72;1.58;;;18.80;62.90;;;;;;10578104;28;20092;-57
2021/11/25 13:42:01;;;;;;;2.35;1.65;;;18.60;63.30;;;;;;10577673;28;20031;-57
2021/11/25 13:47:08;;;;;;;2.65;1.58;;;18.50;63.60;;;;;;10559903;28;20454;-58
2021/11/25 13:52:13;;;;;;;1.67;1.13;;;18.60;63.20;;;;;;10573139;28;20019;-58
2021/11/25 13:57:17;;;;;;;2.80;1.52;;;18.80;62.80;;;;;;10537069;28;20166;-58
2021/11/25 14:02:27;;;;;;;2.50;1.40;;;18.70;63.00;;;;;;10559335;28;20023;-57
2021/11/25 14:07:30;;;;;;;2.45;1.55;;;18.70;62.90;;;;;;10558280;28;20031;-57
2021/11/25 14:12:31;;;;;;;2.95;1.50;;;18.80;62.70;;;;;;10573766;28;20487;-58
2021/11/25 14:17:33;;;;;;;2.53;1.30;;;18.70;63.00;;;;;;10564211;28;20034;-57
2021/11/25 14:22:33;;;;;;;2.15;1.63;;;18.70;63.00;;;;;;10577182;28;20024;-57
2021/11/25 14:32:41;;;;;;;2.90;1.38;;;18.70;62.90;;;;;;10560719;28;20114;-57
2021/11/25 14:37:49;;;;;;;2.80;1.67;;;18.80;62.60;;;;;;10567094;28;20051;-57
2021/11/25 14:43:20;;;;;;;2.42;1.50;;;18.70;62.80;;;;;;10585490;28;20035;-56
2021/11/25 14:48:30;;;;;;;2.20;1.30;;;18.70;62.70;;;;;;10584550;28;20782;-57
2021/11/25 14:53:44;;;;;;;1.75;1.20;;;18.80;62.60;;;;;;10582453;28;20502;-58
2021/11/25 14:59:12;;;;;;;2.15;1.63;;;18.70;62.70;;;;;;10566642;28;20065;-56
2021/11/25 15:04:20;;;;;;;1.98;1.33;;;18.80;62.60;;;;;;10559046;28;20499;-56
2021/11/25 15:09:22;;;;;;;2.08;1.40;;;18.80;62.60;;;;;;10582895;28;20043;-58
2021/11/25 15:14:26;;;;;;;2.15;1.50;;;18.70;62.80;;;;;;10583667;28;20069;-58
2021/11/25 15:19:27;;;;;;;2.40;1.75;;;18.80;62.60;;;;;;10566173;28;20031;-58
2021/11/25 15:24:28;;;;;;;1.73;1.33;;;18.70;62.50;;;;;;10576731;28;20475;-57
2021/11/25 15:29:29;;;;;;;1.83;1.40;;;18.60;62.80;;;;;;10579137;28;20020;-56
2021/11/25 15:34:30;;;;;;;2.08;1.35;;;18.70;62.60;;;;;;10559347;28;20092;-58
2021/11/25 15:39:30;;;;;;;1.98;1.33;;;18.70;62.50;;;;;;10583293;28;20035;-57
2021/11/25 15:44:32;;;;;;;2.83;1.70;;;18.60;62.70;;;;;;10582134;28;20024;-57
2021/11/25 15:49:33;;;;;;;2.25;1.55;;;18.70;62.40;;;;;;10571840;28;20506;-57
2021/11/25 15:54:33;;;;;;;1.60;1.08;;;18.70;62.30;;;;;;10582144;28;20088;-55
2021/11/25 15:59:34;;;;;;;1.90;1.25;;;18.60;62.60;;;;;;10545754;28;20035;-57
2021/11/25 16:04:35;;;;;;;3.22;1.50;;;18.80;62.30;;;;;;10563184;28;20062;-57
2021/11/25 16:09:35;;;;;;;1.60;0.90;;;18.70;62.30;;;;;;10581223;28;20107;-57
2021/11/25 16:14:42;;;;;;;2.47;1.40;;;18.80;62.10;;;;;;10563147;28;20085;-56
2021/11/25 16:19:46;;;;;;;1.58;1.10;;;18.80;62.20;;;;;;10581160;28;20487;-57
2021/11/25 16:24:49;;;;;;;1.45;1.05;;;18.80;62.30;;;;;;10548465;28;20453;-57
2021/11/25 16:29:49;;;;;;;1.73;1.20;;;18.80;62.10;;;;;;10573924;28;20035;-57
2021/11/25 16:34:50;;;;;;;1.80;1.00;;;18.80;62.10;;;;;;10556698;28;20036;-57
2021/11/25 16:39:51;;;;;;;2.10;1.20;;;18.80;61.90;;;;;;10561932;28;20040;-56
2021/11/25 16:44:52;;;;;;;1.70;1.10;;;18.80;61.80;;;;;;10558539;28;20492;-54
2021/11/25 16:49:53;;;;;;;2.83;1.08;;;18.70;62.10;;;;;;10579997;28;20084;-56
2021/11/25 16:54:54;;;;;;;1.60;1.00;;;18.60;62.10;;;;;;10552618;28;20030;-57
2021/11/25 16:59:55;;;;;;;3.13;1.38;;;18.60;61.90;;;;;;10561010;28;20409;-57
2021/11/25 17:04:55;;;;;;;10.30;2.42;;;18.60;62.10;;;;;;10561063;28;20031;-57
2021/11/25 17:09:56;;;;;;;4.85;2.03;;;18.50;61.80;;;;;;10560390;28;20118;-58
2021/11/25 17:14:57;;;;;;;11.40;2.17;;;18.50;61.90;;;;;;10538480;28;20099;-57
2021/11/25 17:19:58;;;;;;;7.63;2.33;;;18.50;61.40;;;;;;10552429;28;20031;-57
2021/11/25 17:24:59;;;;;;;6.90;2.22;;;18.60;60.90;;;;;;10572732;28;20483;-57
2021/11/25 17:30:00;;;;;;;7.60;2.05;;;18.60;60.40;;;;;;10561679;28;20440;-57
2021/11/25 17:35:01;;;;;;;11.90;2.35;;;18.50;60.10;;;;;;10562334;28;20462;-57
2021/11/25 17:40:03;;;;;;;10.27;1.58;;;18.60;62.00;;;;;;10562412;28;20057;-57
2021/11/25 17:45:06;;;;;;;10.73;2.90;;;18.90;62.40;;;;;;10545996;28;20047;-58
2021/11/25 17:50:09;;;;;;;6.63;1.92;;;19.00;62.10;;;;;;10562631;28;20066;-57
2021/11/25 17:55:10;;;;;;;8.10;2.45;;;19.00;61.60;;;;;;10547030;28;20035;-56
2021/11/25 18:00:12;;;;;;;10.43;2.38;;;18.80;61.80;;;;;;10544933;28;20028;-58
2021/11/25 18:05:14;;;;;;;9.35;2.30;;;18.80;62.60;;;;;;10533571;28;20502;-57
2021/11/25 18:10:16;;;;;;;13.45;3.40;;;18.80;62.70;;;;;;10542021;28;20039;-58
2021/11/25 18:15:20;;;;;;;9.80;2.92;;;18.70;62.80;;;;;;10575851;28;20032;-58
2021/11/25 18:20:21;;;;;;;8.93;2.70;;;18.70;62.70;;;;;;10580878;28;20096;-57
2021/11/25 18:25:22;;;;;;;9.88;2.45;;;18.70;62.70;;;;;;10585277;28;20073;-59
2021/11/25 18:30:23;;;;;;;13.18;2.60;;;18.70;62.60;;;;;;10586345;28;20382;-59
2021/11/25 18:35:25;;;;;;;8.05;1.67;;;18.60;62.50;;;;;;10583267;28;20042;-58
2021/11/25 18:40:27;;;;;;;6.22;2.20;;;18.70;62.30;;;;;;10586144;28;20056;-58
2021/11/25 18:45:28;;;;;;;3.60;1.50;;;18.60;62.60;;;;;;10585808;28;20379;-56
2021/11/25 18:50:29;;;;;;;6.55;1.80;;;18.70;62.70;;;;;;10583528;28;20107;-59
2021/11/25 18:55:30;;;;;;;5.07;1.95;;;18.60;62.80;;;;;;10584749;28;20024;-58
2021/11/25 19:00:30;;;;;;;7.03;2.10;;;18.60;62.80;;;;;;10586006;28;20038;-58
2021/11/25 19:05:31;;;;;;;9.77;2.55;;;18.70;62.80;;;;;;10586273;28;20019;-59
2021/11/25 19:10:32;;;;;;;6.95;1.90;;;18.60;62.70;;;;;;10567841;28;20424;-59
2021/11/25 19:15:33;;;;;;;3.75;1.55;;;18.70;62.70;;;;;;10567339;28;20102;-56
2021/11/25 19:20:35;;;;;;;9.18;1.60;;;18.60;62.90;;;;;;10565191;28;20019;-56
2021/11/25 19:25:36;;;;;;;3.53;1.40;;;18.60;62.90;;;;;;10566441;28;20030;-57
2021/11/25 19:30:37;;;;;;;4.20;1.33;;;18.60;62.90;;;;;;10566349;28;20039;-57
2021/11/25 19:35:37;;;;;;;4.93;1.80;;;18.50;63.10;;;;;;10584437;28;20510;-57
2021/11/25 19:40:38;;;;;;;5.90;2.03;;;18.60;63.10;;;;;;10584614;28;20246;-56
2021/11/25 19:45:39;;;;;;;4.18;2.10;;;18.60;63.10;;;;;;10565943;28;20027;-55
2021/11/25 19:50:40;;;;;;;7.43;2.65;;;18.50;63.20;;;;;;10566246;28;20027;-57
2021/11/25 19:55:41;;;;;;;4.60;2.05;;;18.60;63.30;;;;;;10566241;28;20028;-59
2021/11/25 20:00:44;;;;;;;5.00;2.17;;;18.70;63.10;;;;;;10584021;28;20032;-59
2021/11/25 20:05:45;;;;;;;10.82;2.78;;;18.70;63.20;;;;;;10563416;28;20035;-59
2021/11/25 20:10:46;;;;;;;7.97;1.88;;;18.70;63.20;;;;;;10583354;28;20110;-59
2021/11/25 20:15:46;;;;;;;5.95;2.42;;;18.60;63.40;;;;;;10541292;28;20031;-59
2021/11/25 20:20:48;;;;;;;6.13;2.00;;;18.40;63.80;;;;;;10564836;28;20031;-59
2021/11/25 20:25:52;;;;;;;5.03;2.38;;;18.30;64.10;;;;;;10560302;28;20019;-58
2021/11/25 20:30:52;;;;;;;5.30;2.50;;;18.20;64.40;;;;;;10580842;28;20024;-60
2021/11/25 20:35:53;;;;;;;8.07;2.15;;;18.00;64.70;;;;;;10578981;28;20055;-58
2021/11/25 20:40:54;;;;;;;4.30;2.00;;;17.90;65.00;;;;;;10579981;28;20057;-59
2021/11/25 20:45:54;;;;;;;6.32;2.45;;;17.80;65.20;;;;;;10580152;28;20039;-59
2021/11/25 20:50:55;;;;;;;4.85;2.25;;;17.70;65.30;;;;;;10561816;28;20375;-59
2021/11/25 20:55:56;;;;;;;6.82;2.33;;;17.70;65.50;;;;;;10581697;28;20382;-59
2021/11/25 21:00:57;;;;;;;4.28;2.03;;;17.60;65.60;;;;;;10581459;28;20028;-59
2021/11/25 21:05:57;;;;;;;3.60;1.90;;;17.60;65.70;;;;;;10567663;28;20073;-58
2021/11/25 21:10:58;;;;;;;8.35;2.72;;;17.50;65.80;;;;;;10581179;28;20030;-60
2021/11/25 21:15:59;;;;;;;5.22;2.58;;;17.40;65.80;;;;;;10580740;28;20050;-60
2021/11/25 21:20:59;;;;;;;4.30;1.90;;;17.50;65.90;;;;;;10580498;28;20027;-60
2021/11/25 21:26:01;;;;;;;7.97;2.47;;;17.50;65.80;;;;;;10580516;28;20085;-60
2021/11/25 21:31:01;;;;;;;2.78;1.33;;;17.40;65.70;;;;;;10562286;28;20063;-60
2021/11/25 21:36:02;;;;;;;3.10;1.85;;;17.50;65.50;;;;;;10579788;28;20127;-60
2021/11/25 21:41:03;;;;;;;2.35;1.40;;;17.60;65.30;;;;;;10579899;28;20032;-60
2021/11/25 21:46:04;;;;;;;2.80;1.70;;;17.70;64.80;;;;;;10560943;28;20437;-59
2021/11/25 21:51:07;;;;;;;3.78;1.70;;;17.70;64.60;;;;;;10561084;28;20367;-60
2021/11/25 21:56:07;;;;;;;4.50;1.48;;;17.80;64.50;;;;;;10579601;28;20024;-60
2021/11/25 22:01:08;;;;;;;3.97;1.70;;;17.80;64.50;;;;;;10543701;28;20042;-59
2021/11/25 22:06:09;;;;;;;4.78;1.42;;;17.80;64.20;;;;;;10561126;28;20027;-58
2021/11/25 22:11:10;;;;;;;3.03;1.42;;;17.80;64.20;;;;;;10578816;28;20027;-60
2021/11/25 22:16:11;;;;;;;2.78;1.70;;;17.80;64.10;;;;;;10579169;28;20118;-60
2021/11/25 22:21:29;;;;;;;3.35;1.33;;;17.90;64.20;;;;;;10579248;28;20471;-60
2021/11/25 22:26:31;;;;;;;2.55;1.35;;;17.80;64.00;;;;;;10560789;28;20046;-60
2021/11/25 22:31:34;;;;;;;2.70;1.40;;;17.80;64.10;;;;;;10578848;28;20032;-57
2021/11/25 22:36:40;;;;;;;3.03;1.20;;;17.80;64.00;;;;;;10560264;28;20051;-58
2021/11/25 22:41:44;;;;;;;2.60;1.38;;;17.80;63.90;;;;;;10578959;28;20376;-58
2021/11/25 22:46:46;;;;;;;3.13;1.45;;;17.80;63.90;;;;;;10578630;28;20028;-58
2021/11/25 22:51:47;;;;;;;4.05;1.30;;;17.80;63.90;;;;;;10578653;28;20020;-58
2021/11/25 22:56:48;;;;;;;4.18;1.58;;;17.90;63.80;;;;;;10584684;28;20513;-59
2021/11/25 23:01:48;;;;;;;3.47;1.13;;;17.80;63.70;;;;;;10568079;28;20039;-59
2021/11/25 23:06:49;;;;;;;2.92;1.00;;;17.80;63.70;;;;;;10567476;28;20058;-58
2021/11/25 23:11:50;;;;;;;4.03;1.45;;;17.90;63.60;;;;;;10585597;28;20494;-58
2021/11/25 23:16:51;;;;;;;2.47;1.38;;;17.80;63.60;;;;;;10556954;28;20165;-59
2021/11/25 23:21:52;;;;;;;3.75;1.67;;;17.80;63.60;;;;;;10585681;28;20122;-59
2021/11/25 23:26:53;;;;;;;2.38;1.30;;;17.90;63.50;;;;;;10566971;28;20027;-58
2021/11/25 23:31:54;;;;;;;2.45;1.23;;;17.90;64.10;;;;;;10585049;28;20049;-59
2021/11/25 23:36:55;;;;;;;2.78;1.30;;;17.90;63.30;;;;;;10566406;28;20047;-58
2021/11/25 23:41:56;;;;;;;4.55;1.48;;;17.90;63.40;;;;;;10566379;28;20428;-58
2021/11/25 23:46:57;;;;;;;2.45;1.30;;;17.90;63.40;;;;;;10584461;28;20019;-59
2021/11/25 23:51:58;;;;;;;3.08;1.30;;;17.90;63.40;;;;;;10565923;28;20494;-59
2021/11/25 23:56:59;;;;;;;3.55;1.30;;;17.80;63.50;;;;;;10566066;28;20038;-58
